Time;durP1;ratioP1;P1;durP2;ratioP2;P2;SDS_P1;SDS_P2;PMS_P1;PMS_P2;Temp;Humidity;BMP_temperature;BMP_pressure;BME280_temperature;BME280_humidity;BME280_pressure;Samples;Min_cycle;Max_cycle;Signal;HPM_P1;HPM_P2
2023/07/11 00:02:15;;;;;;;0.10;0.10;;;;;;;17.43;100.00;96840.88;5065982;28;20043;-79
2023/07/11 00:05:02;;;;;;;0.10;0.10;;;;;;;17.24;100.00;96848.03;5070190;28;20752;-79
2023/07/11 00:07:48;;;;;;;0.00;0.00;;;;;;;17.25;100.00;96849.66;5054434;28;20506;-79
2023/07/11 00:10:34;;;;;;;0.10;0.10;;;;;;;17.25;100.00;96836.94;5070155;28;20044;-79
2023/07/11 00:13:20;;;;;;;0.10;0.10;;;;;;;17.34;100.00;96845.25;5071876;28;20717;-79
2023/07/11 00:16:10;;;;;;;0.10;0.10;;;;;;;17.22;100.00;96842.91;5073217;28;20155;-79
2023/07/11 00:18:56;;;;;;;0.10;0.10;;;;;;;17.23;100.00;96844.53;5075113;28;20040;-79
2023/07/11 00:21:41;;;;;;;0.00;0.00;;;;;;;17.14;100.00;96837.31;5073013;28;20109;-79
2023/07/11 00:24:27;;;;;;;0.03;0.03;;;;;;;17.15;100.00;96834.31;5073646;28;20844;-78
2023/07/11 00:27:17;;;;;;;0.10;0.10;;;;;;;17.25;100.00;96825.31;5058117;28;20516;-78
2023/07/11 00:30:04;;;;;;;0.10;0.10;;;;;;;17.40;100.00;96827.09;5073439;28;20044;-78
2023/07/11 00:32:50;;;;;;;0.00;0.00;;;;;;;17.54;100.00;96830.75;5070858;28;20487;-78
2023/07/11 00:35:37;;;;;;;0.10;0.10;;;;;;;17.65;100.00;96823.34;5055618;28;20036;-78
2023/07/11 00:38:24;;;;;;;0.00;0.00;;;;;;;17.65;100.00;96828.75;5071841;28;20051;-78
2023/07/11 00:41:10;;;;;;;0.10;0.10;;;;;;;17.68;100.00;96830.91;5071057;28;20144;-78
2023/07/11 00:43:56;;;;;;;0.10;0.10;;;;;;;17.67;100.00;96826.59;5056165;28;20044;-78
2023/07/11 00:46:43;;;;;;;0.10;0.10;;;;;;;17.69;100.00;96821.69;5074228;28;20577;-78
2023/07/11 00:49:28;;;;;;;0.03;0.03;;;;;;;17.66;100.00;96819.56;5072683;28;20047;-79
2023/07/11 00:52:17;;;;;;;0.10;0.10;;;;;;;17.50;100.00;96819.69;5057620;28;20907;-79
2023/07/11 00:55:08;;;;;;;0.00;0.00;;;;;;;17.55;100.00;96818.84;5069756;28;20039;-79
2023/07/11 00:57:54;;;;;;;0.00;0.00;;;;;;;17.58;100.00;96820.97;5070370;28;20073;-79
2023/07/11 01:00:40;;;;;;;0.00;0.00;;;;;;;17.62;100.00;96821.22;5072770;28;20651;-79
2023/07/11 01:03:26;;;;;;;0.10;0.10;;;;;;;17.65;100.00;96817.94;5057233;28;20101;-80
2023/07/11 01:06:18;;;;;;;0.10;0.10;;;;;;;17.57;100.00;96826.66;5070931;28;20070;-77
2023/07/11 01:09:06;;;;;;;0.10;0.10;;;;;;;17.53;100.00;96824.53;5069106;28;20043;-77
2023/07/11 01:12:06;;;;;;;0.10;0.10;;;;;;;17.51;100.00;96825.94;5071382;28;20089;-78
2023/07/11 01:14:56;;;;;;;0.10;0.10;;;;;;;17.42;100.00;96823.00;5073138;28;20767;-78
2023/07/11 01:17:42;;;;;;;0.00;0.00;;;;;;;17.41;100.00;96815.16;5072652;28;20039;-78
2023/07/11 01:20:28;;;;;;;0.10;0.10;;;;;;;17.38;100.00;96805.75;5072004;28;20157;-79
2023/07/11 01:23:15;;;;;;;0.10;0.10;;;;;;;17.38;100.00;96810.34;5056876;28;20069;-78
2023/07/11 01:26:04;;;;;;;0.00;0.00;;;;;;;17.43;100.00;96810.28;5072784;28;20039;-78
2023/07/11 01:28:50;;;;;;;0.10;0.03;;;;;;;17.41;100.00;96810.56;5043103;28;20047;-78
2023/07/11 01:31:36;;;;;;;0.00;0.00;;;;;;;17.33;100.00;96804.97;5060141;28;20036;-78
2023/07/11 01:34:22;;;;;;;0.03;0.03;;;;;;;17.23;100.00;96800.44;5072107;28;20032;-78
2023/07/11 01:37:08;;;;;;;0.00;0.00;;;;;;;17.07;100.00;96804.34;5071847;28;20052;-78
2023/07/11 01:39:54;;;;;;;0.00;0.00;;;;;;;16.86;100.00;96800.97;5071527;28;20123;-78
2023/07/11 01:42:41;;;;;;;0.10;0.10;;;;;;;16.66;100.00;96799.19;5070469;28;20057;-78
2023/07/11 01:45:27;;;;;;;0.08;0.08;;;;;;;16.56;100.00;96799.22;5073617;28;20039;-78
2023/07/11 01:48:14;;;;;;;0.10;0.10;;;;;;;16.59;100.00;96798.69;5049678;28;20075;-78
2023/07/11 01:51:00;;;;;;;0.00;0.00;;;;;;;16.48;100.00;96792.50;5058056;28;20043;-78
2023/07/11 01:53:45;;;;;;;0.00;0.00;;;;;;;16.46;100.00;96785.78;5041973;28;20067;-78
2023/07/11 01:56:31;;;;;;;0.10;0.10;;;;;;;16.40;100.00;96788.50;5059530;28;20127;-78
2023/07/11 01:59:17;;;;;;;0.10;0.10;;;;;;;16.31;100.00;96786.66;5060346;28;20133;-78
2023/07/11 02:02:04;;;;;;;0.00;0.00;;;;;;;16.31;100.00;96779.34;5070220;28;20123;-78
2023/07/11 02:04:50;;;;;;;0.05;0.05;;;;;;;16.44;100.00;96780.66;5051285;28;20036;-78
2023/07/11 02:07:36;;;;;;;0.10;0.10;;;;;;;16.48;100.00;96783.59;5057415;28;20066;-78
2023/07/11 02:10:22;;;;;;;0.10;0.10;;;;;;;16.40;100.00;96785.00;5056073;28;20040;-77
2023/07/11 02:13:08;;;;;;;0.10;0.10;;;;;;;16.33;100.00;96777.19;5070389;28;20152;-77
2023/07/11 02:15:59;;;;;;;;;;;;;;;16.24;100.00;96780.75;5070115;28;20112;-77
2023/07/11 02:18:45;;;;;;;0.10;0.10;;;;;;;16.21;100.00;96771.31;5057482;28;20294;-78
2023/07/11 02:21:30;;;;;;;0.10;0.10;;;;;;;16.13;100.00;96763.78;5069701;28;20047;-78
2023/07/11 02:24:17;;;;;;;0.10;0.10;;;;;;;16.09;100.00;96768.09;5069386;28;20032;-77
2023/07/11 02:27:04;;;;;;;0.10;0.10;;;;;;;16.03;100.00;96769.19;5062509;28;20028;-77
2023/07/11 02:29:49;;;;;;;0.00;0.00;;;;;;;16.02;100.00;96768.41;5055899;28;20835;-77
2023/07/11 02:32:35;;;;;;;0.00;0.00;;;;;;;16.03;100.00;96766.50;5055692;28;20712;-77
2023/07/11 02:35:21;;;;;;;0.08;0.08;;;;;;;15.99;100.00;96765.47;5069964;28;20098;-77
2023/07/11 02:38:07;;;;;;;0.10;0.10;;;;;;;15.91;100.00;96758.72;5068427;28;20089;-77
2023/07/11 02:40:53;;;;;;;0.05;0.05;;;;;;;15.93;100.00;96758.47;5068146;28;20738;-77
2023/07/11 02:43:39;;;;;;;0.08;0.08;;;;;;;15.95;100.00;96751.69;5056440;28;20044;-78
2023/07/11 02:46:25;;;;;;;0.10;0.10;;;;;;;16.01;100.00;96757.88;5070421;28;20105;-78
2023/07/11 02:49:12;;;;;;;0.10;0.10;;;;;;;15.99;100.00;96760.88;5068652;28;20036;-78
2023/07/11 02:51:58;;;;;;;0.10;0.10;;;;;;;16.04;100.00;96749.25;5069336;28;20363;-78
2023/07/11 02:54:44;;;;;;;0.10;0.10;;;;;;;15.98;100.00;96751.16;5071315;28;20845;-78
2023/07/11 02:57:30;;;;;;;0.10;0.10;;;;;;;16.02;100.00;96757.59;5069970;28;20048;-78
2023/07/11 03:00:16;;;;;;;0.10;0.10;;;;;;;15.99;100.00;96751.97;5068879;28;20036;-77
2023/07/11 03:03:03;;;;;;;0.10;0.10;;;;;;;15.94;100.00;96757.38;5071153;28;20036;-78
2023/07/11 03:05:51;;;;;;;0.10;0.10;;;;;;;15.94;100.00;96752.78;5051734;28;20051;-78
2023/07/11 03:08:37;;;;;;;0.10;0.10;;;;;;;15.95;100.00;96740.09;5068229;28;20040;-78
2023/07/11 03:11:22;;;;;;;0.10;0.10;;;;;;;15.98;100.00;96739.56;5055740;28;20028;-78
2023/07/11 03:14:08;;;;;;;0.10;0.10;;;;;;;15.94;100.00;96736.59;5069649;28;20031;-78
2023/07/11 03:16:54;;;;;;;0.10;0.10;;;;;;;15.94;100.00;96723.09;5038435;28;20108;-78
2023/07/11 03:19:40;;;;;;;0.00;0.00;;;;;;;15.96;100.00;96730.94;5069557;28;20901;-78
2023/07/11 03:22:27;;;;;;;0.10;0.10;;;;;;;15.94;100.00;96722.28;5051790;28;20106;-78
2023/07/11 03:25:13;;;;;;;0.10;0.10;;;;;;;15.96;100.00;96720.13;5053858;28;20140;-78
2023/07/11 03:27:59;;;;;;;0.10;0.10;;;;;;;15.95;100.00;96718.50;5041855;28;20626;-78
2023/07/11 03:30:46;;;;;;;0.10;0.10;;;;;;;15.92;100.00;96714.47;5067863;28;20449;-78
2023/07/11 03:33:32;;;;;;;0.10;0.10;;;;;;;15.95;100.00;96715.81;5054731;28;20074;-78
2023/07/11 03:36:20;;;;;;;0.10;0.10;;;;;;;15.94;100.00;96722.28;5054578;28;20036;-78
2023/07/11 03:39:06;;;;;;;0.10;0.10;;;;;;;15.92;100.00;96717.16;5070201;28;20032;-78
2023/07/11 03:41:52;;;;;;;0.00;0.00;;;;;;;15.94;100.00;96712.28;5069374;28;20048;-77
2023/07/11 03:44:41;;;;;;;0.00;0.00;;;;;;;15.91;100.00;96717.44;5054718;28;20048;-77
2023/07/11 03:47:27;;;;;;;0.10;0.10;;;;;;;15.84;100.00;96712.34;5069877;28;20127;-77
2023/07/11 03:50:13;;;;;;;0.00;0.00;;;;;;;15.86;100.00;96710.97;5069545;28;20043;-78
2023/07/11 03:52:59;;;;;;;0.10;0.10;;;;;;;15.85;100.00;96708.56;5069301;28;20063;-78
2023/07/11 03:55:45;;;;;;;0.10;0.10;;;;;;;15.90;100.00;96710.44;5069143;28;20028;-78
2023/07/11 03:58:30;;;;;;;0.10;0.10;;;;;;;15.94;100.00;96706.09;5053053;28;21231;-78
2023/07/11 04:01:17;;;;;;;0.10;0.10;;;;;;;15.95;100.00;96703.13;5068468;28;20119;-78
2023/07/11 04:04:03;;;;;;;0.10;0.08;;;;;;;15.99;100.00;96697.97;5070404;28;20040;-77
2023/07/11 04:06:49;;;;;;;0.10;0.10;;;;;;;16.03;100.00;96699.03;5057455;28;20074;-77
2023/07/11 04:09:35;;;;;;;0.00;0.00;;;;;;;16.05;100.00;96691.50;5070696;28;20035;-78
2023/07/11 04:12:21;;;;;;;0.10;0.10;;;;;;;16.12;100.00;96692.00;5069099;28;20395;-77
2023/07/11 04:15:07;;;;;;;0.10;0.10;;;;;;;16.17;100.00;96692.75;5070575;28;20136;-78
2023/07/11 04:17:53;;;;;;;0.10;0.10;;;;;;;16.24;100.00;96686.25;5070952;28;20044;-77
2023/07/11 04:20:39;;;;;;;0.10;0.10;;;;;;;16.34;100.00;96686.19;5071066;28;20036;-77
2023/07/11 04:23:24;;;;;;;0.05;0.05;;;;;;;16.44;100.00;96689.63;5069539;28;20036;-78
2023/07/11 04:26:10;;;;;;;0.10;0.10;;;;;;;16.52;100.00;96679.34;5058830;28;20137;-78
2023/07/11 04:28:56;;;;;;;0.10;0.10;;;;;;;16.61;100.00;96680.34;5069436;28;20075;-77
2023/07/11 04:31:42;;;;;;;0.10;0.10;;;;;;;16.71;100.00;96688.41;5068530;28;20036;-77
2023/07/11 04:34:28;;;;;;;0.10;0.10;;;;;;;16.73;100.00;96691.66;5071171;28;20043;-77
2023/07/11 04:37:14;;;;;;;0.08;0.08;;;;;;;16.78;100.00;96688.06;5056961;28;20845;-77
2023/07/11 04:40:00;;;;;;;0.10;0.10;;;;;;;16.81;100.00;96692.91;5053051;28;20089;-77
2023/07/11 04:42:46;;;;;;;0.10;0.08;;;;;;;16.84;100.00;96697.75;5070139;28;20118;-77
2023/07/11 04:45:32;;;;;;;0.17;0.17;;;;;;;16.88;100.00;96696.91;5050925;28;20082;-77
2023/07/11 04:48:18;;;;;;;0.10;0.10;;;;;;;16.98;100.00;96688.72;5071334;28;20160;-77
2023/07/11 04:51:07;;;;;;;0.10;0.10;;;;;;;17.04;100.00;96681.34;5071373;28;21273;-78
2023/07/11 04:53:53;;;;;;;0.05;0.05;;;;;;;17.15;100.00;96682.91;5071290;28;20044;-79
2023/07/11 04:56:40;;;;;;;0.10;0.10;;;;;;;17.21;100.00;96678.25;5055599;28;20040;-78
2023/07/11 04:59:26;;;;;;;0.20;0.20;;;;;;;17.32;100.00;96677.06;5059205;28;20044;-79
2023/07/11 05:02:12;;;;;;;0.10;0.10;;;;;;;17.43;100.00;96683.16;5074350;28;20490;-78
2023/07/11 05:04:58;;;;;;;0.10;0.10;;;;;;;17.50;100.00;96676.31;5060342;28;20040;-78
2023/07/11 05:07:43;;;;;;;0.10;0.10;;;;;;;17.55;100.00;96668.16;5059200;28;20785;-78
2023/07/11 05:10:29;;;;;;;0.10;0.10;;;;;;;17.64;100.00;96668.31;5071822;28;20831;-79
2023/07/11 05:13:15;;;;;;;0.10;0.10;;;;;;;17.69;100.00;96670.16;5071144;28;20048;-79
2023/07/11 05:16:03;;;;;;;0.10;0.10;;;;;;;17.74;100.00;96664.69;5070139;28;21113;-79
2023/07/11 05:18:49;;;;;;;0.10;0.10;;;;;;;17.75;100.00;96659.03;5071423;28;20065;-79
2023/07/11 05:21:35;;;;;;;0.00;0.00;;;;;;;17.81;100.00;96668.69;5055616;28;20043;-79
2023/07/11 05:24:21;;;;;;;0.10;0.10;;;;;;;17.86;100.00;96657.00;5073776;28;20104;-79
2023/07/11 05:27:08;;;;;;;0.10;0.10;;;;;;;17.90;100.00;96655.34;5072041;28;20074;-79
2023/07/11 05:29:54;;;;;;;0.10;0.10;;;;;;;17.98;100.00;96653.88;5056792;28;20047;-79
2023/07/11 05:32:40;;;;;;;0.10;0.10;;;;;;;18.06;100.00;96655.94;5070740;28;20047;-79
2023/07/11 05:35:26;;;;;;;0.10;0.10;;;;;;;18.15;100.00;96656.09;5073136;28;20058;-79
2023/07/11 05:38:11;;;;;;;0.10;0.10;;;;;;;18.20;100.00;96645.97;5056547;28;20121;-79
2023/07/11 05:40:57;;;;;;;0.10;0.10;;;;;;;18.31;100.00;96654.78;5069826;28;20126;-79
2023/07/11 05:43:43;;;;;;;0.10;0.10;;;;;;;18.41;100.00;96651.09;5072879;28;20054;-79
2023/07/11 05:46:30;;;;;;;0.00;0.00;;;;;;;18.54;100.00;96642.25;5070061;28;20112;-79
2023/07/11 05:49:15;;;;;;;0.10;0.10;;;;;;;18.64;100.00;96642.06;5070444;28;20525;-79
2023/07/11 05:52:01;;;;;;;0.00;0.00;;;;;;;18.71;100.00;96641.72;5056421;28;20414;-79
2023/07/11 05:54:47;;;;;;;0.10;0.10;;;;;;;18.83;100.00;96644.75;5072203;28;20038;-79
2023/07/11 05:57:33;;;;;;;0.05;0.05;;;;;;;18.89;100.00;96635.44;5056933;28;20100;-79
2023/07/11 06:00:20;;;;;;;0.10;0.10;;;;;;;19.03;100.00;96628.16;5067252;28;20109;-79
2023/07/11 06:03:06;;;;;;;0.10;0.10;;;;;;;19.07;100.00;96623.75;5069820;28;20071;-79
2023/07/11 06:05:53;;;;;;;0.10;0.10;;;;;;;19.11;100.00;96623.97;5057065;28;20505;-79
2023/07/11 06:08:39;;;;;;;0.10;0.10;;;;;;;19.25;100.00;96624.78;5072028;28;20059;-79
2023/07/11 06:11:25;;;;;;;0.08;0.08;;;;;;;19.34;100.00;96616.75;5069593;28;20051;-80
2023/07/11 06:14:12;;;;;;;0.10;0.10;;;;;;;19.44;100.00;96619.25;5050653;28;20482;-79
2023/07/11 06:16:58;;;;;;;0.10;0.10;;;;;;;19.46;100.00;96620.59;5055577;28;20895;-79
2023/07/11 06:19:44;;;;;;;0.03;0.03;;;;;;;19.52;100.00;96613.13;5072229;28;20036;-80
2023/07/11 06:22:30;;;;;;;0.15;0.15;;;;;;;19.59;100.00;96607.34;5050410;28;20819;-79
2023/07/11 06:25:16;;;;;;;0.10;0.10;;;;;;;19.66;100.00;96613.97;5056797;28;20036;-79
2023/07/11 06:28:02;;;;;;;0.10;0.10;;;;;;;19.71;100.00;96611.16;5057104;28;20834;-79
2023/07/11 06:30:47;;;;;;;0.10;0.10;;;;;;;19.80;100.00;96618.59;5055501;28;20048;-79
2023/07/11 06:33:33;;;;;;;0.10;0.10;;;;;;;19.92;100.00;96621.56;5070572;28;20047;-80
2023/07/11 06:36:19;;;;;;;0.10;0.10;;;;;;;19.98;100.00;96621.16;5053307;28;20139;-80
2023/07/11 06:39:06;;;;;;;0.00;0.00;;;;;;;20.07;100.00;96623.97;5056981;28;20759;-79
2023/07/11 06:41:52;;;;;;;0.10;0.10;;;;;;;20.12;100.00;96617.63;5069899;28;20052;-79
2023/07/11 06:44:44;;;;;;;0.10;0.10;;;;;;;20.16;100.00;96614.00;5056181;28;20039;-80
2023/07/11 06:47:30;;;;;;;0.05;0.05;;;;;;;20.19;100.00;96621.53;5072027;28;20061;-79
2023/07/11 06:50:16;;;;;;;0.10;0.10;;;;;;;20.29;100.00;96612.34;5056848;28;20585;-80
2023/07/11 06:53:02;;;;;;;0.10;0.10;;;;;;;20.39;100.00;96603.13;5055478;28;20039;-79
2023/07/11 06:55:51;;;;;;;0.10;0.10;;;;;;;20.46;100.00;96595.41;5072805;28;20096;-79
2023/07/11 06:58:37;;;;;;;0.10;0.10;;;;;;;20.58;100.00;96601.09;5055789;28;20043;-79
2023/07/11 07:01:23;;;;;;;0.10;0.10;;;;;;;20.67;100.00;96596.50;5056381;28;20043;-80
2023/07/11 07:04:09;;;;;;;0.08;0.08;;;;;;;20.69;100.00;96602.44;5055663;28;20043;-79
2023/07/11 07:06:55;;;;;;;0.00;0.00;;;;;;;20.70;100.00;96587.75;5056381;28;20063;-81
2023/07/11 07:09:41;;;;;;;0.10;0.10;;;;;;;20.82;100.00;96584.47;4999548;28;20052;-81
2023/07/11 07:12:27;;;;;;;0.00;0.00;;;;;;;20.94;100.00;96575.75;5030728;28;20208;-82
2023/07/11 07:15:13;;;;;;;0.10;0.10;;;;;;;20.98;100.00;96568.56;5035433;28;20050;-80
2023/07/11 07:17:59;;;;;;;0.10;0.10;;;;;;;21.18;100.00;96583.53;5016013;28;20213;-80
2023/07/11 07:20:46;;;;;;;0.10;0.10;;;;;;;21.27;100.00;96587.09;5042097;28;20039;-81
2023/07/11 07:23:36;;;;;;;0.00;0.00;;;;;;;21.34;100.00;96592.91;5053433;28;20104;-80
2023/07/11 07:26:22;;;;;;;0.10;0.10;;;;;;;21.33;100.00;96577.72;5056438;28;20032;-80
2023/07/11 07:29:08;;;;;;;0.10;0.10;;;;;;;21.40;100.00;96580.78;5034928;28;20728;-81
2023/07/11 07:31:54;;;;;;;0.08;0.08;;;;;;;21.59;100.00;96573.16;5055404;28;20043;-80
2023/07/11 07:34:40;;;;;;;0.10;0.10;;;;;;;21.67;100.00;96580.53;5055989;28;20040;-80
2023/07/11 07:37:26;;;;;;;0.00;0.00;;;;;;;21.73;100.00;96562.13;5030932;28;20848;-79
2023/07/11 07:40:12;;;;;;;0.00;0.00;;;;;;;21.93;100.00;96572.41;5008160;28;20565;-80
2023/07/11 07:42:58;;;;;;;0.10;0.10;;;;;;;21.99;100.00;96570.34;5053706;28;20101;-80
2023/07/11 07:45:50;;;;;;;0.10;0.10;;;;;;;22.05;100.00;96568.25;5070113;28;20032;-80
2023/07/11 07:48:36;;;;;;;0.10;0.10;;;;;;;22.15;100.00;96566.06;5055361;28;20060;-80
2023/07/11 07:51:22;;;;;;;0.10;0.10;;;;;;;22.05;100.00;96560.91;5068608;28;20043;-79
2023/07/11 07:54:08;;;;;;;0.08;0.08;;;;;;;22.04;100.00;96548.41;5044672;28;20563;-79
2023/07/11 07:56:54;;;;;;;0.10;0.10;;;;;;;22.17;100.00;96558.34;5042975;28;20505;-80
2023/07/11 07:59:40;;;;;;;0.00;0.00;;;;;;;22.37;100.00;96561.56;5050126;28;20129;-80
2023/07/11 08:02:26;;;;;;;0.00;0.00;;;;;;;22.45;100.00;96550.66;5033829;28;20663;-80
2023/07/11 08:05:12;;;;;;;0.08;0.08;;;;;;;22.64;100.00;96561.19;5022906;28;20040;-81
2023/07/11 08:07:59;;;;;;;0.05;0.05;;;;;;;22.73;100.00;96545.66;5040035;28;20047;-80
2023/07/11 08:10:45;;;;;;;0.08;0.08;;;;;;;22.77;100.00;96548.50;5038686;28;20542;-80
2023/07/11 08:13:32;;;;;;;0.00;0.00;;;;;;;22.87;100.00;96553.66;5055275;28;20814;-80
2023/07/11 08:16:18;;;;;;;0.00;0.00;;;;;;;22.89;100.00;96545.16;5068373;28;20400;-80
2023/07/11 08:19:05;;;;;;;0.03;0.03;;;;;;;22.96;100.00;96534.53;5041220;28;20880;-80
2023/07/11 08:21:54;;;;;;;0.10;0.10;;;;;;;23.15;100.00;96553.25;5052454;28;20040;-80
2023/07/11 08:24:40;;;;;;;0.00;0.00;;;;;;;23.32;100.00;96545.78;5053172;28;20072;-80
2023/07/11 08:27:29;;;;;;;0.00;0.00;;;;;;;23.22;100.00;96535.25;5055827;28;20040;-81
2023/07/11 08:30:15;;;;;;;0.10;0.10;;;;;;;23.33;100.00;96538.38;5040310;28;20040;-80
2023/07/11 08:33:02;;;;;;;0.10;0.10;;;;;;;23.37;98.55;96533.88;5041996;28;20044;-80
2023/07/11 08:35:48;;;;;;;0.00;0.00;;;;;;;23.32;100.00;96531.34;5042724;28;20032;-80
2023/07/11 08:38:34;;;;;;;0.00;0.00;;;;;;;23.32;99.80;96520.41;5057863;28;20477;-80
2023/07/11 08:41:44;;;;;;;0.00;0.00;;;;;;;23.43;100.00;96521.66;5058514;28;20883;-80
2023/07/11 08:44:37;;;;;;;0.10;0.10;;;;;;;23.42;99.95;96524.69;5034401;27;20035;-80
2023/07/11 08:47:31;;;;;;;0.00;0.00;;;;;;;23.52;100.00;96519.66;5044841;28;20132;-80
2023/07/11 08:50:21;;;;;;;0.10;0.10;;;;;;;23.57;98.30;96516.72;5054811;28;20184;-81
2023/07/11 08:53:16;;;;;;;;;;;;;;;23.75;99.76;96524.88;5042678;28;20040;-80
2023/07/11 08:56:10;;;;;;;0.10;0.10;;;;;;;23.77;97.22;96514.41;5021664;28;20020;-80
2023/07/11 08:59:01;;;;;;;0.00;0.00;;;;;;;23.92;97.78;96516.53;5025861;28;20047;-80
2023/07/11 09:02:01;;;;;;;0.10;0.10;;;;;;;23.81;97.58;96509.84;5057062;28;20123;-80
2023/07/11 09:04:52;;;;;;;0.10;0.10;;;;;;;23.85;98.89;96508.06;5015293;28;20593;-80
2023/07/11 09:07:42;;;;;;;0.10;0.10;;;;;;;24.02;97.98;96515.34;5028172;28;20051;-81
2023/07/11 09:10:42;;;;;;;0.10;0.10;;;;;;;23.96;96.33;96497.53;5021684;28;20040;-80
2023/07/11 09:13:35;;;;;;;0.10;0.10;;;;;;;24.33;96.85;96498.53;5038288;28;20155;-80
2023/07/11 09:16:41;;;;;;;0.10;0.10;;;;;;;24.13;97.50;96509.16;5027245;28;20051;-80
2023/07/11 09:19:48;;;;;;;0.05;0.05;;;;;;;24.46;99.11;96492.00;5036082;28;20047;-80
2023/07/11 09:22:47;;;;;;;0.00;0.00;;;;;;;24.81;97.91;96486.94;5039105;28;20331;-80
2023/07/11 09:25:40;;;;;;;0.10;0.10;;;;;;;24.93;96.06;96480.69;5043081;28;20755;-81
2023/07/11 09:28:29;;;;;;;0.00;0.00;;;;;;;25.16;95.49;96476.41;5040472;28;20040;-80
2023/07/11 09:31:18;;;;;;;0.10;0.10;;;;;;;25.30;95.12;96478.03;5038877;28;20040;-80
2023/07/11 09:34:23;;;;;;;0.00;0.00;;;;;;;25.14;95.18;96473.22;5025824;28;20039;-80
2023/07/11 09:37:17;;;;;;;0.00;0.00;;;;;;;25.49;96.01;96472.75;5026910;28;20702;-80
2023/07/11 09:40:17;;;;;;;0.10;0.10;;;;;;;25.50;95.03;96466.91;5040561;28;20504;-80
2023/07/11 09:43:04;;;;;;;0.10;0.10;;;;;;;25.70;96.16;96469.88;5026702;28;20059;-80
2023/07/11 09:45:50;;;;;;;0.10;0.10;;;;;;;25.55;96.13;96469.44;5043575;28;20127;-80
2023/07/11 09:48:36;;;;;;;0.00;0.00;;;;;;;25.32;97.35;96459.31;5030197;28;20238;-81
2023/07/11 09:51:26;;;;;;;0.00;0.00;;;;;;;25.58;95.57;96454.22;5043995;28;20101;-81
2023/07/11 09:54:20;;;;;;;0.10;0.10;;;;;;;25.74;95.03;96460.63;5029692;28;20047;-80
2023/07/11 09:57:10;;;;;;;0.00;0.00;;;;;;;25.81;94.03;96462.78;5036878;28;20039;-80
2023/07/11 10:00:01;;;;;;;0.10;0.10;;;;;;;26.09;92.89;96455.38;5041774;28;20055;-80
2023/07/11 10:02:48;;;;;;;0.10;0.10;;;;;;;26.36;92.87;96444.75;5038960;28;20040;-80
2023/07/11 10:05:34;;;;;;;0.00;0.00;;;;;;;26.46;91.61;96449.78;5044181;28;20032;-80
2023/07/11 10:08:29;;;;;;;0.00;0.00;;;;;;;26.57;93.59;96450.03;5057654;28;20028;-80
2023/07/11 10:11:15;;;;;;;0.00;0.00;;;;;;;26.93;90.95;96446.28;5057725;28;20503;-80
2023/07/11 10:14:02;;;;;;;0.00;0.00;;;;;;;26.99;90.79;96438.53;5042781;28;20042;-80
2023/07/11 10:16:48;;;;;;;0.00;0.00;;;;;;;27.34;88.33;96435.91;5056319;28;20032;-79
2023/07/11 10:19:33;;;;;;;0.10;0.00;;;;;;;27.49;87.95;96446.84;5058981;28;20032;-80
2023/07/11 10:22:21;;;;;;;0.00;0.00;;;;;;;27.83;86.72;96447.22;5056056;28;20123;-80
2023/07/11 10:25:16;;;;;;;0.00;0.00;;;;;;;27.49;86.75;96448.81;5043855;28;20040;-80
2023/07/11 10:28:21;;;;;;;0.08;0.08;;;;;;;27.62;87.84;96425.53;5036412;28;20637;-80
2023/07/11 10:31:14;;;;;;;0.00;0.00;;;;;;;28.05;84.07;96431.97;5046506;28;20553;-79
2023/07/11 10:34:35;;;;;;;0.10;0.10;;;;;;;27.68;86.81;96434.31;5068438;28;20040;-80
2023/07/11 10:37:41;;;;;;;0.00;0.00;;;;;;;27.64;87.30;96430.69;5070006;28;20739;-80
2023/07/11 10:40:29;;;;;;;0.10;0.10;;;;;;;27.86;85.92;96431.94;5070928;28;20036;-80
2023/07/11 10:43:18;;;;;;;0.00;0.00;;;;;;;27.98;84.94;96418.06;5049070;28;20075;-80
2023/07/11 10:46:20;;;;;;;0.00;0.00;;;;;;;28.25;84.41;96421.75;5057160;28;20064;-80
2023/07/11 10:49:12;;;;;;;0.03;0.03;;;;;;;28.31;82.67;96395.56;5052960;28;20118;-80
2023/07/11 10:52:19;;;;;;;0.00;0.00;;;;;;;28.82;79.95;96401.56;5042553;28;20055;-81
2023/07/11 10:55:19;;;;;;;0.10;0.10;;;;;;;29.39;78.33;96393.41;5041999;28;20040;-81
2023/07/11 10:58:08;;;;;;;0.03;0.03;;;;;;;29.34;77.78;96386.28;5049369;28;20040;-80
2023/07/11 11:01:09;;;;;;;0.05;0.05;;;;;;;29.35;77.68;96382.38;5034913;28;20044;-80
2023/07/11 11:04:18;;;;;;;0.10;0.10;;;;;;;29.59;74.28;96381.13;5041513;28;20630;-81
2023/07/11 11:07:13;;;;;;;0.00;0.00;;;;;;;29.67;73.73;96380.06;5055157;28;20134;-81
2023/07/11 11:10:32;;;;;;;0.10;0.10;;;;;;;29.38;69.56;96378.84;5038033;28;20067;-81
2023/07/11 11:13:45;;;;;;;0.10;0.10;;;;;;;29.71;70.36;96368.28;5054785;28;20040;-81
2023/07/11 11:16:40;;;;;;;0.00;0.00;;;;;;;30.49;70.60;96367.19;5041549;28;20069;-81
2023/07/11 11:19:44;;;;;;;0.00;0.00;;;;;;;29.79;72.21;96369.94;5040695;28;20079;-81
2023/07/11 11:22:43;;;;;;;0.00;0.00;;;;;;;30.04;74.95;96360.03;5039603;28;20040;-81
2023/07/11 11:25:59;;;;;;;0.10;0.10;;;;;;;31.15;65.90;96356.34;5054267;28;20144;-81
2023/07/11 11:29:13;;;;;;;0.10;0.10;;;;;;;32.40;57.79;96352.19;5019744;28;20127;-80
2023/07/11 11:32:20;;;;;;;0.10;0.10;;;;;;;32.19;56.07;96334.72;5052332;28;20924;-81
2023/07/11 11:35:48;;;;;;;0.10;0.10;;;;;;;34.68;44.85;96341.69;5065357;28;20044;-81
2023/07/11 11:39:04;;;;;;;0.10;0.10;;;;;;;36.85;35.17;96335.63;5037095;28;20032;-81
2023/07/11 11:42:06;;;;;;;0.10;0.10;;;;;;;38.34;29.88;96338.34;5003745;28;1375383;-81
2023/07/11 11:44:58;;;;;;;0.00;0.00;;;;;;;38.74;30.74;96330.63;5048422;28;20046;-81
2023/07/11 11:47:44;;;;;;;0.10;0.10;;;;;;;38.45;30.99;96329.75;5035998;28;20695;-81
2023/07/11 11:50:34;;;;;;;0.10;0.10;;;;;;;39.13;26.99;96320.50;5055113;28;20040;-81
2023/07/11 11:53:44;;;;;;;0.10;0.10;;;;;;;39.98;25.41;96320.16;5039306;28;20062;-81
2023/07/11 11:56:30;;;;;;;0.20;0.20;;;;;;;40.85;25.79;96319.88;5068875;28;20525;-81
2023/07/11 11:59:25;;;;;;;0.10;0.10;;;;;;;41.14;24.95;96319.72;5040958;28;20044;-81
2023/07/11 12:02:16;;;;;;;0.10;0.10;;;;;;;41.63;24.35;96307.19;5054225;28;20069;-81
2023/07/11 12:05:08;;;;;;;0.10;0.10;;;;;;;44.54;20.94;96301.81;5049753;28;20606;-81
2023/07/11 12:08:23;;;;;;;0.10;0.10;;;;;;;45.23;19.40;96302.84;5067092;28;20101;-81
2023/07/11 12:11:08;;;;;;;0.10;0.10;;;;;;;46.30;18.90;96292.25;5041141;28;20032;-81
2023/07/11 12:14:25;;;;;;;0.10;0.10;;;;;;;43.60;21.01;96295.28;5053782;28;20109;-81
2023/07/11 12:17:34;;;;;;;0.10;0.10;;;;;;;45.96;17.79;96298.63;5071619;28;20047;-81
2023/07/11 12:20:25;;;;;;;0.10;0.10;;;;;;;44.97;18.43;96296.91;5053314;28;20051;-82
2023/07/11 12:23:16;;;;;;;0.10;0.10;;;;;;;43.56;19.37;96289.03;5039858;28;20081;-81
2023/07/11 12:26:16;;;;;;;0.10;0.10;;;;;;;43.74;19.57;96283.38;5038732;28;20032;-82
2023/07/11 12:29:30;;;;;;;0.10;0.10;;;;;;;44.77;18.65;96285.41;5039371;28;20418;-81
2023/07/11 12:32:51;;;;;;;0.10;0.10;;;;;;;44.35;18.68;96278.53;5068738;28;20032;-82
2023/07/11 12:35:38;;;;;;;0.05;0.05;;;;;;;42.73;20.78;96260.03;5011158;28;20046;-81
2023/07/11 12:38:34;;;;;;;0.10;0.10;;;;;;;46.11;17.07;96265.50;5055779;28;20509;-82
2023/07/11 12:41:29;;;;;;;0.10;0.10;;;;;;;46.65;15.83;96261.19;5055693;28;20040;-82
2023/07/11 12:44:16;;;;;;;0.10;0.10;;;;;;;47.47;15.97;96259.19;5056563;28;20040;-82
2023/07/11 12:47:12;;;;;;;0.10;0.10;;;;;;;48.16;15.16;96265.00;5047319;28;20526;-82
2023/07/11 12:49:59;;;;;;;0.10;0.10;;;;;;;48.19;15.08;96252.66;5054619;28;20537;-81
2023/07/11 12:52:55;;;;;;;0.17;0.17;;;;;;;46.48;15.72;96257.34;5069169;28;20052;-81
2023/07/11 12:55:42;;;;;;;0.10;0.10;;;;;;;48.19;15.44;96257.56;5053788;28;20063;-81
2023/07/11 12:58:31;;;;;;;0.08;0.08;;;;;;;48.91;13.85;96256.50;5041010;28;20221;-82
2023/07/11 13:01:17;;;;;;;0.10;0.10;;;;;;;47.57;15.27;96240.00;5053625;28;20042;-82
2023/07/11 13:04:07;;;;;;;0.10;0.10;;;;;;;48.87;14.36;96248.22;5048740;28;20036;-82
2023/07/11 13:06:55;;;;;;;0.10;0.10;;;;;;;47.78;15.13;96237.06;5048525;28;20032;-82
2023/07/11 13:09:50;;;;;;;0.10;0.10;;;;;;;48.58;15.00;96231.53;5037502;28;20048;-82
2023/07/11 13:12:37;;;;;;;0.10;0.10;;;;;;;49.90;14.38;96234.63;5050954;28;20044;-82
2023/07/11 13:15:23;;;;;;;0.10;0.10;;;;;;;50.22;12.85;96238.00;5051734;28;20024;-82